createdAt,value
2022-12-23T00:00:54.249Z,10.30
2022-12-23T00:03:21.947Z,10.23
2022-12-23T00:05:49.705Z,10.21
2022-12-23T00:08:17.431Z,10.13
2022-12-23T00:10:45.487Z,10.14
2022-12-23T00:13:30.869Z,10.11
2022-12-23T00:16:04.616Z,9.99
2022-12-23T00:18:32.195Z,9.93
2022-12-23T00:21:06.674Z,9.96
2022-12-23T00:23:37.517Z,9.99
2022-12-23T00:26:05.634Z,10.04
2022-12-23T00:28:33.803Z,9.97
2022-12-23T00:31:04.335Z,9.95
2022-12-23T00:33:33.755Z,9.98
2022-12-23T00:36:01.657Z,10.02
2022-12-23T00:38:47.364Z,10.13
2022-12-23T00:41:34.573Z,10.11
2022-12-23T00:44:02.501Z,10.06
2022-12-23T00:46:31.593Z,9.98
2022-12-23T00:49:17.084Z,10.02
2022-12-23T00:51:44.650Z,10.05
2022-12-23T00:54:12.134Z,10.07
2022-12-23T00:56:39.701Z,10.07
2022-12-23T00:59:07.454Z,10.04
2022-12-23T01:01:54.977Z,10.09
2022-12-23T01:04:40.122Z,10.04
2022-12-23T01:07:08.104Z,10.09
2022-12-23T01:09:35.964Z,10.04
2022-12-23T01:12:03.560Z,10.11
2022-12-23T01:14:31.453Z,10.05
2022-12-23T01:17:00.470Z,10.12
2022-12-23T01:19:28.978Z,10.00
2022-12-23T01:21:56.551Z,9.99
2022-12-23T01:24:24.120Z,10.11
2022-12-23T01:26:51.690Z,10.03
2022-12-23T01:29:19.267Z,10.02
2022-12-23T01:31:46.876Z,10.07
2022-12-23T01:34:16.028Z,10.07
2022-12-23T01:36:43.583Z,10.11
2022-12-23T01:39:11.341Z,10.12
2022-12-23T01:41:56.572Z,10.18
2022-12-23T01:44:49.467Z,10.23
2022-12-23T01:47:22.605Z,10.20
2022-12-23T01:49:55.047Z,10.23
2022-12-23T01:52:22.898Z,10.20
2022-12-23T01:54:50.797Z,10.27
2022-12-23T01:57:18.416Z,10.25
2022-12-23T02:00:03.974Z,10.17
2022-12-23T02:02:52.965Z,10.22
2022-12-23T02:05:23.373Z,10.17
2022-12-23T02:08:10.983Z,10.08
2022-12-23T02:10:53.230Z,10.23
2022-12-23T02:13:32.642Z,10.17
2022-12-23T02:16:18.112Z,10.19
2022-12-23T02:19:01.330Z,10.20
2022-12-23T02:21:41.913Z,10.23
2022-12-23T02:24:34.923Z,10.14
2022-12-23T02:27:19.886Z,10.24
2022-12-23T02:30:09.184Z,10.31
2022-12-23T02:32:46.711Z,10.31
2022-12-23T02:35:23.381Z,10.15
2022-12-23T02:37:55.143Z,10.16
2022-12-23T02:40:30.321Z,10.22
2022-12-23T02:43:04.266Z,10.21
2022-12-23T02:45:36.745Z,10.22
2022-12-23T02:48:12.286Z,10.25
2022-12-23T02:50:42.787Z,10.26
2022-12-23T02:53:16.998Z,10.20
2022-12-23T02:55:47.858Z,10.25
2022-12-23T02:58:19.358Z,10.17
2022-12-23T03:00:49.275Z,10.19
2022-12-23T03:03:21.234Z,10.31
2022-12-23T03:05:50.780Z,10.34
2022-12-23T03:08:24.083Z,10.34
2022-12-23T03:11:03.610Z,10.24
2022-12-23T03:14:02.402Z,10.09
2022-12-23T03:16:39.468Z,10.02
2022-12-23T03:19:16.023Z,10.14
2022-12-23T03:21:47.935Z,10.04
2022-12-23T03:24:23.051Z,10.09
2022-12-23T03:26:55.858Z,10.17
2022-12-23T03:29:28.204Z,10.06
2022-12-23T03:31:58.137Z,10.13
2022-12-23T03:34:31.557Z,10.10
2022-12-23T03:37:04.883Z,10.00
2022-12-23T03:39:36.521Z,9.99
2022-12-23T03:42:10.237Z,10.02
2022-12-23T03:44:40.150Z,9.93
2022-12-23T03:47:12.108Z,9.88
2022-12-23T03:49:45.603Z,9.81
2022-12-23T03:52:21.212Z,9.76
2022-12-23T03:54:54.075Z,9.80
2022-12-23T03:57:26.808Z,9.81
2022-12-23T03:59:54.371Z,9.83
2022-12-23T04:02:27.693Z,9.70
2022-12-23T04:05:20.576Z,9.59
2022-12-23T04:07:53.851Z,9.64
2022-12-23T04:10:22.669Z,9.52
2022-12-23T04:12:51.020Z,9.47
2022-12-23T04:15:23.526Z,9.47
2022-12-23T04:17:52.771Z,9.51
2022-12-23T04:20:21.957Z,9.46
2022-12-23T04:22:50.802Z,9.46
2022-12-23T04:25:18.612Z,9.51
2022-12-23T04:27:46.204Z,9.55
2022-12-23T04:30:14.603Z,9.53
2022-12-23T04:32:43.160Z,9.46
2022-12-23T04:35:11.910Z,9.40
2022-12-23T04:37:40.833Z,9.38
2022-12-23T04:40:09.276Z,9.37
2022-12-23T04:42:36.951Z,9.38
2022-12-23T04:45:05.136Z,9.45
2022-12-23T04:47:32.928Z,9.27
2022-12-23T04:50:00.480Z,9.27
2022-12-23T04:52:28.406Z,9.27
2022-12-23T04:54:57.350Z,9.25
2022-12-23T04:57:25.993Z,9.23
2022-12-23T04:59:53.599Z,9.22
2022-12-23T05:02:21.363Z,9.15
2022-12-23T05:04:49.169Z,9.23
2022-12-23T05:07:16.763Z,9.35
2022-12-23T05:09:44.369Z,9.45
2022-12-23T05:12:13.225Z,9.44
2022-12-23T05:14:40.787Z,9.57
2022-12-23T05:17:08.343Z,9.51
2022-12-23T05:19:36.470Z,9.44
2022-12-23T05:22:04.192Z,9.42
2022-12-23T05:24:31.742Z,9.40
2022-12-23T05:27:00.311Z,9.42
2022-12-23T05:29:29.660Z,9.42
2022-12-23T05:31:57.469Z,9.38
2022-12-23T05:34:25.030Z,9.50
2022-12-23T05:36:52.617Z,9.39
2022-12-23T05:39:20.236Z,9.42
2022-12-23T05:41:47.775Z,9.36
2022-12-23T05:44:15.599Z,9.36
2022-12-23T05:46:44.510Z,9.42
2022-12-23T05:49:12.127Z,9.38
2022-12-23T05:51:39.969Z,9.34
2022-12-23T05:54:07.587Z,9.42
2022-12-23T05:56:35.110Z,9.37
2022-12-23T05:59:03.841Z,9.44
2022-12-23T06:01:31.491Z,9.52
2022-12-23T06:04:00.497Z,9.40
2022-12-23T06:06:28.696Z,9.37
2022-12-23T06:08:59.746Z,9.38
2022-12-23T06:11:27.903Z,9.43
2022-12-23T06:13:55.523Z,9.30
2022-12-23T06:16:23.093Z,9.05
2022-12-23T06:18:50.610Z,8.85
2022-12-23T06:21:19.429Z,8.82
2022-12-23T06:23:47.285Z,8.72
2022-12-23T06:26:14.843Z,8.75
2022-12-23T06:28:42.645Z,8.63
2022-12-23T06:31:10.261Z,8.60
2022-12-23T06:33:37.811Z,8.54
2022-12-23T06:36:06.297Z,8.54
2022-12-23T06:38:35.285Z,8.44
2022-12-23T06:41:02.827Z,8.42
2022-12-23T06:43:30.396Z,8.46
2022-12-23T06:45:57.981Z,8.44
2022-12-23T06:48:25.795Z,8.44
2022-12-23T06:50:53.333Z,8.47
2022-12-23T06:53:21.093Z,8.54
2022-12-23T06:55:50.016Z,8.67
2022-12-23T06:58:17.600Z,8.70
2022-12-23T07:00:45.141Z,8.77
2022-12-23T07:03:13.102Z,8.73
2022-12-23T07:05:40.685Z,8.86
2022-12-23T07:08:09.226Z,8.92
2022-12-23T07:10:36.744Z,9.03
2022-12-23T07:13:05.675Z,9.06
2022-12-23T07:15:33.206Z,9.16
2022-12-23T07:18:00.937Z,9.18
2022-12-23T07:20:28.645Z,9.26
2022-12-23T07:22:56.985Z,9.37
2022-12-23T07:25:26.208Z,9.31
2022-12-23T07:27:54.079Z,9.23
2022-12-23T07:30:26.036Z,9.27
2022-12-23T07:32:54.077Z,9.35
2022-12-23T07:35:21.660Z,9.36
2022-12-23T07:37:54.963Z,9.41
2022-12-23T07:40:22.768Z,9.37
2022-12-23T07:42:51.094Z,9.47
2022-12-23T07:45:19.692Z,9.49
2022-12-23T07:47:48.682Z,9.55
2022-12-23T07:50:17.152Z,9.61
2022-12-23T07:52:44.632Z,9.65
2022-12-23T07:55:12.580Z,9.67
2022-12-23T07:57:40.661Z,9.78
2022-12-23T08:00:10.153Z,9.79
2022-12-23T08:02:38.091Z,9.87
2022-12-23T08:05:08.982Z,9.90
2022-12-23T08:07:36.689Z,9.97
2022-12-23T08:10:05.000Z,9.98
2022-12-23T08:12:32.859Z,9.95
2022-12-23T08:15:00.468Z,10.01
2022-12-23T08:17:29.015Z,9.96
2022-12-23T08:19:56.821Z,10.07
2022-12-23T08:22:25.894Z,10.07
2022-12-23T08:24:53.505Z,10.11
2022-12-23T08:27:21.048Z,10.09
2022-12-23T08:29:48.628Z,10.06
2022-12-23T08:32:16.147Z,10.15
2022-12-23T08:34:43.640Z,10.14
2022-12-23T08:37:11.168Z,10.21
2022-12-23T08:39:40.076Z,10.14
2022-12-23T08:42:07.688Z,10.22
2022-12-23T08:44:35.352Z,10.32
2022-12-23T08:47:02.955Z,10.26
2022-12-23T08:49:30.670Z,10.35
2022-12-23T08:51:58.262Z,10.29
2022-12-23T08:54:26.098Z,10.31
2022-12-23T08:56:54.911Z,10.39
2022-12-23T08:59:22.473Z,10.48
2022-12-23T09:01:50.495Z,10.53
2022-12-23T09:04:18.613Z,10.57
2022-12-23T09:06:46.502Z,10.54
2022-12-23T09:09:16.318Z,10.59
2022-12-23T09:11:44.592Z,10.57
2022-12-23T09:14:13.774Z,10.54
2022-12-23T09:16:41.412Z,10.58
2022-12-23T09:19:08.961Z,10.69
2022-12-23T09:21:36.858Z,10.61
2022-12-23T09:24:04.793Z,10.66
2022-12-23T09:26:32.973Z,10.62
2022-12-23T09:29:00.977Z,10.65
2022-12-23T09:31:36.249Z,10.66
2022-12-23T09:34:05.103Z,10.69
2022-12-23T09:36:32.838Z,10.71
2022-12-23T09:39:00.426Z,10.81
2022-12-23T09:41:47.494Z,10.76
2022-12-23T09:44:27.716Z,10.87
2022-12-23T09:47:01.985Z,10.88
2022-12-23T09:49:29.841Z,11.02
2022-12-23T09:52:01.041Z,11.01
2022-12-23T09:54:30.830Z,10.97
2022-12-23T09:57:01.410Z,11.14
2022-12-23T09:59:48.585Z,10.90
2022-12-23T10:02:27.823Z,10.97
2022-12-23T10:05:02.837Z,10.92
2022-12-23T10:07:37.364Z,11.09
2022-12-23T10:10:14.780Z,11.29
2022-12-23T10:12:47.093Z,11.49
2022-12-23T10:15:27.069Z,11.55
2022-12-23T10:18:00.830Z,12.02
2022-12-23T10:20:37.593Z,12.08
2022-12-23T10:23:09.743Z,11.99
2022-12-23T10:25:44.447Z,11.96
2022-12-23T10:28:12.056Z,12.01
2022-12-23T10:31:05.993Z,12.08
2022-12-23T10:33:39.282Z,11.94
2022-12-23T10:36:12.947Z,12.04
2022-12-23T10:38:52.063Z,12.12
2022-12-23T10:41:30.235Z,12.10
2022-12-23T10:44:20.719Z,11.81
2022-12-23T10:47:01.028Z,11.64
2022-12-23T10:49:38.679Z,11.48
2022-12-23T10:52:14.729Z,11.28
2022-12-23T10:54:45.230Z,11.17
2022-12-23T10:57:15.363Z,11.12
2022-12-23T10:59:43.558Z,11.11
2022-12-23T11:02:29.175Z,11.01
2022-12-23T11:04:58.134Z,11.02
2022-12-23T11:07:45.512Z,10.85
2022-12-23T11:10:17.704Z,10.94
2022-12-23T11:12:48.333Z,10.83
2022-12-23T11:15:34.568Z,10.78
2022-12-23T11:18:05.189Z,10.74
2022-12-23T11:20:34.830Z,10.70
2022-12-23T11:23:04.821Z,10.66
2022-12-23T11:25:35.433Z,10.68
2022-12-23T11:28:08.833Z,10.70
2022-12-23T11:30:39.414Z,10.74
2022-12-23T11:33:07.176Z,10.80
2022-12-23T11:35:37.917Z,10.77
2022-12-23T11:38:05.874Z,10.91
2022-12-23T11:40:37.869Z,11.00
2022-12-23T11:43:12.296Z,10.99
2022-12-23T11:45:40.012Z,10.93
2022-12-23T11:48:27.326Z,10.87
2022-12-23T11:51:01.733Z,10.91
2022-12-23T11:53:30.195Z,10.96
2022-12-23T11:56:00.579Z,11.03
2022-12-23T11:58:31.403Z,11.07
2022-12-23T12:01:01.308Z,10.95
2022-12-23T12:03:33.217Z,11.02
2022-12-23T12:06:05.418Z,11.02
2022-12-23T12:08:36.474Z,11.10
2022-12-23T12:11:10.940Z,11.00
2022-12-23T12:13:40.903Z,11.12
2022-12-23T12:16:29.895Z,11.10
2022-12-23T12:19:02.647Z,11.11
2022-12-23T12:21:37.458Z,11.20
2022-12-23T12:24:18.486Z,11.21
2022-12-23T12:26:50.904Z,11.18
2022-12-23T12:29:23.550Z,11.10
2022-12-23T12:31:53.682Z,11.08
2022-12-23T12:34:34.654Z,11.10
2022-12-23T12:37:14.080Z,11.01
2022-12-23T12:39:44.202Z,10.96
2022-12-23T12:42:17.079Z,10.96
2022-12-23T12:44:57.053Z,10.99
2022-12-23T12:50:27.320Z,11.01
2022-12-23T12:53:00.766Z,11.04
2022-12-23T12:55:34.439Z,10.99
2022-12-23T12:58:03.594Z,11.00
2022-12-23T13:00:43.306Z,11.06
2022-12-23T13:03:33.901Z,11.08
2022-12-23T13:06:12.956Z,11.05
2022-12-23T13:09:03.029Z,10.92
2022-12-23T13:11:43.868Z,10.91
2022-12-23T13:14:25.761Z,10.85
2022-12-23T13:17:01.301Z,10.76
2022-12-23T13:19:39.355Z,10.63
2022-12-23T13:22:10.219Z,10.63
2022-12-23T13:24:52.931Z,10.54
2022-12-23T13:27:27.135Z,10.47
2022-12-23T13:30:06.055Z,10.56
2022-12-23T13:33:16.437Z,10.52
2022-12-23T13:36:05.338Z,10.53
2022-12-23T13:38:57.048Z,10.57
2022-12-23T13:41:33.351Z,10.68
2022-12-23T13:44:05.164Z,10.67
2022-12-23T13:46:44.304Z,10.71
2022-12-23T13:49:22.784Z,10.66
2022-12-23T13:51:57.577Z,10.54
2022-12-23T13:54:37.379Z,10.55
2022-12-23T13:57:17.931Z,10.50
2022-12-23T14:00:04.927Z,10.48
2022-12-23T14:02:50.970Z,10.54
2022-12-23T14:05:31.103Z,10.48
2022-12-23T14:08:00.546Z,10.55
2022-12-23T14:10:30.156Z,10.63
2022-12-23T14:13:05.316Z,10.72
2022-12-23T14:15:56.752Z,10.75
2022-12-23T14:18:45.724Z,10.53
2022-12-23T14:21:20.951Z,10.53
2022-12-23T14:24:04.945Z,10.50
2022-12-23T14:27:11.105Z,10.59
2022-12-23T14:30:00.000Z,10.67
2022-12-23T14:32:44.031Z,10.75
2022-12-23T14:35:27.654Z,10.68
2022-12-23T14:38:24.640Z,10.72
2022-12-23T14:41:22.460Z,10.63
2022-12-23T14:43:55.841Z,10.69
2022-12-23T14:46:59.589Z,10.70
2022-12-23T14:49:46.174Z,10.68
2022-12-23T14:52:53.581Z,10.66
2022-12-23T14:56:09.276Z,10.70
2022-12-23T14:59:00.713Z,10.78
2022-12-23T15:01:34.027Z,10.79
2022-12-23T15:04:09.542Z,10.85
2022-12-23T15:06:41.344Z,10.80
2022-12-23T15:09:17.483Z,10.85
2022-12-23T15:11:45.103Z,10.75
2022-12-23T15:14:22.907Z,10.74
2022-12-23T15:16:50.460Z,10.90
2022-12-23T15:19:21.397Z,11.01
2022-12-23T15:21:58.324Z,10.95
2022-12-23T15:24:33.213Z,10.96
2022-12-23T15:27:26.108Z,10.87
2022-12-23T15:29:51.339Z,10.69
2022-12-23T15:32:20.250Z,10.75
2022-12-23T15:34:49.075Z,10.76
2022-12-23T15:37:23.171Z,10.78
2022-12-23T15:39:59.542Z,10.79
2022-12-23T15:42:35.342Z,10.87
2022-12-23T15:45:25.145Z,10.98
2022-12-23T15:47:52.700Z,11.07
2022-12-23T15:50:20.561Z,11.11
2022-12-23T15:52:51.303Z,11.02
2022-12-23T15:55:23.950Z,11.08
2022-12-23T15:57:52.906Z,11.06
2022-12-23T16:00:23.261Z,11.09
2022-12-23T16:03:02.402Z,11.10
2022-12-23T16:05:33.460Z,11.13
2022-12-23T16:08:28.285Z,11.22
2022-12-23T16:11:04.240Z,11.16
2022-12-23T16:13:32.333Z,11.18
2022-12-23T16:16:30.136Z,11.17
2022-12-23T16:18:57.892Z,11.15
2022-12-23T16:21:29.256Z,11.20
2022-12-23T16:24:00.108Z,11.18
2022-12-23T16:26:27.917Z,11.30
2022-12-23T16:29:00.437Z,11.27
2022-12-23T16:31:28.445Z,11.44
2022-12-23T16:33:58.025Z,11.41
2022-12-23T16:36:34.743Z,11.40
2022-12-23T16:39:17.910Z,11.52
2022-12-23T16:41:45.505Z,11.52
2022-12-23T16:44:12.969Z,11.53
2022-12-23T16:46:43.718Z,11.57
2022-12-23T16:49:16.074Z,11.61
2022-12-23T16:51:43.894Z,11.67
2022-12-23T16:54:16.372Z,11.76
2022-12-23T16:56:46.670Z,11.75
2022-12-23T16:59:15.128Z,11.71
2022-12-23T17:01:45.652Z,11.81
2022-12-23T17:04:13.619Z,11.83
2022-12-23T17:06:42.051Z,11.90
2022-12-23T17:09:10.926Z,11.91
2022-12-23T17:11:42.343Z,11.97
2022-12-23T17:14:16.931Z,12.01
2022-12-23T17:16:45.303Z,11.98
2022-12-23T17:19:13.180Z,11.85
2022-12-23T17:21:42.887Z,11.74
2022-12-23T17:24:13.793Z,11.82
2022-12-23T17:26:42.727Z,11.73
2022-12-23T17:29:12.502Z,11.66
2022-12-23T17:31:41.156Z,11.55
2022-12-23T17:34:15.214Z,11.63
2022-12-23T17:36:49.478Z,11.68
2022-12-23T17:39:17.830Z,11.75
2022-12-23T17:41:47.295Z,11.67
2022-12-23T17:44:16.323Z,11.66
2022-12-23T17:46:44.179Z,11.62
2022-12-23T17:49:12.144Z,11.62
2022-12-23T17:51:40.815Z,11.52
2022-12-23T17:54:21.212Z,11.53
2022-12-23T17:56:50.775Z,11.60
2022-12-23T17:59:18.323Z,11.53
2022-12-23T18:01:46.072Z,11.50
2022-12-23T18:04:13.674Z,11.45
2022-12-23T18:06:41.240Z,11.44
2022-12-23T18:09:09.023Z,11.42
2022-12-23T18:11:42.184Z,11.35
2022-12-23T18:14:17.045Z,11.35
2022-12-23T18:16:44.831Z,11.40
2022-12-23T18:19:17.392Z,11.32
2022-12-23T18:21:45.116Z,11.26
2022-12-23T18:24:12.824Z,11.29
2022-12-23T18:26:40.603Z,11.24
2022-12-23T18:29:08.157Z,11.17
2022-12-23T18:31:40.941Z,11.11
2022-12-23T18:34:17.379Z,11.10
2022-12-23T18:36:45.438Z,11.13
2022-12-23T18:39:13.040Z,11.07
2022-12-23T18:41:40.665Z,11.05
2022-12-23T18:44:11.265Z,11.05
2022-12-23T18:46:40.282Z,11.13
2022-12-23T18:49:07.864Z,11.11
2022-12-23T18:51:35.413Z,11.24
2022-12-23T18:54:03.059Z,11.21
2022-12-23T18:56:30.641Z,11.16
2022-12-23T18:58:58.373Z,11.20
2022-12-23T19:01:26.158Z,11.13
2022-12-23T19:03:55.146Z,11.07
2022-12-23T19:06:22.672Z,11.06
2022-12-23T19:08:50.245Z,10.99
2022-12-23T19:11:22.959Z,10.91
2022-12-23T19:13:50.480Z,10.90
2022-12-23T19:16:20.676Z,10.88
2022-12-23T19:18:49.469Z,10.85
2022-12-23T19:21:19.448Z,10.95
2022-12-23T19:23:47.012Z,10.91
2022-12-23T19:26:15.460Z,10.98
2022-12-23T19:28:43.477Z,11.05
2022-12-23T19:31:12.594Z,10.96
2022-12-23T19:33:41.163Z,11.07
2022-12-23T19:36:10.748Z,11.14
2022-12-23T19:38:40.274Z,11.18
2022-12-23T19:41:09.593Z,11.24
2022-12-23T19:43:41.575Z,11.24
2022-12-23T19:46:12.944Z,11.36
2022-12-23T19:48:40.647Z,11.37
2022-12-23T19:51:10.347Z,11.47
2022-12-23T19:53:39.912Z,11.48
2022-12-23T19:56:13.279Z,11.51
2022-12-23T19:58:43.844Z,11.43
2022-12-23T20:01:15.364Z,11.43
2022-12-23T20:03:43.917Z,11.34
2022-12-23T20:06:15.543Z,11.28
2022-12-23T20:08:43.738Z,11.19
2022-12-23T20:11:14.752Z,11.17
2022-12-23T20:13:42.651Z,11.19
2022-12-23T20:16:10.981Z,11.15
2022-12-23T20:18:38.988Z,11.17
2022-12-23T20:21:07.098Z,11.20
2022-12-23T20:23:35.096Z,11.65
2022-12-23T20:26:03.347Z,11.34
2022-12-23T20:28:33.643Z,11.22
2022-12-23T20:31:12.522Z,11.03
2022-12-23T20:33:42.637Z,10.98
2022-12-23T20:36:15.862Z,11.13
2022-12-23T20:38:45.494Z,11.13
2022-12-23T20:41:16.116Z,11.12
2022-12-23T20:43:56.852Z,11.09
2022-12-23T20:46:30.723Z,11.16
2022-12-23T20:48:58.397Z,11.21
2022-12-23T20:51:26.684Z,11.25
2022-12-23T20:53:59.728Z,11.31
2022-12-23T20:56:29.260Z,11.25
2022-12-23T20:58:59.951Z,11.24
2022-12-23T21:01:33.165Z,11.25
2022-12-23T21:04:03.615Z,11.22
2022-12-23T21:06:32.709Z,11.29
2022-12-23T21:09:01.307Z,11.41
2022-12-23T21:11:30.107Z,11.41
2022-12-23T21:14:06.159Z,11.45
2022-12-23T21:16:36.192Z,11.45
2022-12-23T21:19:04.206Z,11.48
2022-12-23T21:21:31.991Z,11.40
2022-12-23T21:24:02.472Z,11.36
2022-12-23T21:26:31.251Z,11.50
2022-12-23T21:29:01.406Z,11.51
2022-12-23T21:31:30.878Z,11.40
2022-12-23T21:33:59.412Z,11.49
2022-12-23T21:36:30.886Z,11.51
2022-12-23T21:38:59.260Z,11.51
2022-12-23T21:41:29.370Z,11.50
2022-12-23T21:43:57.695Z,11.48
2022-12-23T21:46:28.636Z,11.37
2022-12-23T21:48:57.744Z,11.41
2022-12-23T21:51:30.353Z,11.38
2022-12-23T21:54:02.945Z,11.38
2022-12-23T21:56:32.120Z,11.40
2022-12-23T21:59:01.784Z,11.32
2022-12-23T22:01:31.455Z,11.26
2022-12-23T22:03:59.488Z,11.17
2022-12-23T22:06:29.514Z,11.12
2022-12-23T22:08:58.016Z,11.13
2022-12-23T22:11:30.249Z,11.16
2022-12-23T22:13:59.199Z,11.10
2022-12-23T22:16:28.678Z,11.07
2022-12-23T22:18:59.207Z,11.08
2022-12-23T22:21:28.358Z,10.99
2022-12-23T22:23:56.950Z,11.04
2022-12-23T22:26:26.527Z,11.07
2022-12-23T22:28:55.171Z,11.17
2022-12-23T22:31:28.140Z,11.05
2022-12-23T22:33:57.262Z,11.00
2022-12-23T22:36:24.917Z,10.97
2022-12-23T22:38:53.660Z,10.92
2022-12-23T22:41:21.864Z,10.87
2022-12-23T22:43:49.422Z,10.88
2022-12-23T22:46:18.294Z,11.37
2022-12-23T22:48:46.373Z,11.36
2022-12-23T22:51:17.849Z,11.36
2022-12-23T22:53:45.642Z,11.18
2022-12-23T22:56:15.051Z,11.00
2022-12-23T22:58:43.024Z,11.04
2022-12-23T23:01:20.393Z,11.20
2022-12-23T23:03:51.980Z,11.34
2022-12-23T23:06:20.874Z,11.23
2022-12-23T23:08:48.729Z,11.29
2022-12-23T23:11:17.433Z,11.55
2022-12-23T23:13:45.122Z,11.46
2022-12-23T23:16:12.768Z,11.56
2022-12-23T23:18:40.473Z,11.57
2022-12-23T23:21:08.461Z,11.54
2022-12-23T23:23:37.861Z,11.42
2022-12-23T23:26:08.578Z,11.36
2022-12-23T23:28:37.279Z,11.30
2022-12-23T23:31:39.822Z,11.22
2022-12-23T23:33:52.793Z,11.14
2022-12-23T23:36:21.582Z,11.08
2022-12-23T23:38:50.501Z,11.00
2022-12-23T23:41:22.893Z,10.97
2022-12-23T23:43:51.040Z,10.91
2022-12-23T23:46:18.883Z,10.94
2022-12-23T23:48:46.515Z,10.85
2022-12-23T23:51:14.089Z,10.88
2022-12-23T23:53:41.763Z,10.86
2022-12-23T23:56:10.974Z,10.82
2022-12-23T23:58:38.850Z,10.71
